Time;durP1;ratioP1;P1;durP2;ratioP2;P2;SDS_P1;SDS_P2;PMS_P1;PMS_P2;Temp;Humidity;BMP_temperature;BMP_pressure;BME280_temperature;BME280_humidity;BME280_pressure;Samples;Min_cycle;Max_cycle;Signal;HPM_P1;HPM_P2
2021/04/24 00:00:31;;;;;;;1.52;1.42;;;;;;;11.67;61.32;99311.97;5074664;28;20017;-75
2021/04/24 00:02:57;;;;;;;0.88;0.82;;;;;;;11.85;60.03;99333.75;5074467;28;20029;-73
2021/04/24 00:05:28;;;;;;;0.22;0.22;;;;;;;11.64;60.40;99298.97;5074473;28;20016;-75
2021/04/24 00:07:55;;;;;;;1.25;1.20;;;;;;;11.88;60.47;99321.81;5074403;28;20028;-75
2021/04/24 00:10:22;;;;;;;1.45;1.35;;;;;;;11.59;60.67;99278.13;5074464;28;20027;-75
2021/04/24 00:12:48;;;;;;;0.60;0.60;;;;;;;11.83;60.84;99328.66;5074402;28;20025;-76
2021/04/24 00:15:14;;;;;;;0.50;0.50;;;;;;;11.68;61.57;99330.16;5074682;28;20074;-77
2021/04/24 00:17:40;;;;;;;0.60;0.60;;;;;;;11.43;63.58;99286.41;5074468;28;20062;-75
2021/04/24 00:20:08;;;;;;;1.00;0.52;;;;;;;11.53;62.93;99281.84;5074180;28;20016;-75
2021/04/24 00:22:33;;;;;;;0.63;0.63;;;;;;;11.71;62.88;99318.22;5074728;28;20043;-76
2021/04/24 00:24:59;;;;;;;0.90;0.88;;;;;;;11.70;62.16;99314.66;5074261;28;20032;-74
2021/04/24 00:27:25;;;;;;;0.85;0.85;;;;;;;11.47;61.92;99272.47;5074015;28;20024;-75
2021/04/24 00:29:50;;;;;;;0.70;0.70;;;;;;;11.66;60.87;99333.34;5074129;28;20036;-76
2021/04/24 00:32:16;;;;;;;0.73;0.73;;;;;;;11.68;60.69;99311.56;5074082;28;20028;-75
2021/04/24 00:34:41;;;;;;;0.35;0.35;;;;;;;11.30;61.61;99275.19;5073978;28;20407;-76
2021/04/24 00:37:07;;;;;;;0.57;0.55;;;;;;;11.54;62.31;99316.59;5073885;28;20028;-76
2021/04/24 00:39:32;;;;;;;0.30;0.30;;;;;;;11.54;61.84;99308.31;5073678;28;20044;-78
2021/04/24 00:41:58;;;;;;;0.25;0.25;;;;;;;11.23;62.67;99266.25;5073839;28;20028;-75
2021/04/24 00:44:24;;;;;;;1.17;1.17;;;;;;;11.45;65.03;99299.81;5073878;28;20484;-75
2021/04/24 00:46:49;;;;;;;0.65;0.65;;;;;;;11.57;65.37;99333.16;5073824;28;20029;-77
2021/04/24 00:49:15;;;;;;;0.40;0.40;;;;;;;11.53;66.12;99331.66;5073768;28;20032;-76
2021/04/24 00:51:41;;;;;;;1.55;1.30;;;;;;;11.11;65.39;99267.69;5073655;28;20066;-75
2021/04/24 00:54:07;;;;;;;7.88;2.78;;;;;;;10.79;65.40;99243.44;5073600;28;20065;-77
2021/04/24 00:56:34;;;;;;;0.30;0.30;;;;;;;11.05;63.78;99285.22;5073674;28;20181;-74
2021/04/24 00:59:00;;;;;;;0.73;0.73;;;;;;;11.20;60.27;99303.09;5073391;28;20027;-75
2021/04/24 01:01:26;;;;;;;0.50;0.50;;;;;;;10.93;60.42;99250.69;5073727;28;20044;-74
2021/04/24 01:03:52;;;;;;;0.47;0.47;;;;;;;10.98;58.34;99258.47;5073483;28;20029;-75
2021/04/24 01:06:18;;;;;;;0.50;0.50;;;;;;;11.47;57.50;99333.34;5073151;28;20031;-74
2021/04/24 01:08:43;;;;;;;0.55;0.55;;;;;;;11.47;58.25;99331.38;5073954;28;20037;-76
2021/04/24 01:11:09;;;;;;;0.63;0.63;;;;;;;11.20;56.71;99281.75;5073257;28;20480;-75
2021/04/24 01:13:34;;;;;;;2.72;1.05;;;;;;;11.22;57.53;99276.56;5073362;28;20028;-76
2021/04/24 01:16:00;;;;;;;1.95;1.85;;;;;;;11.10;57.55;99279.97;5073304;28;20029;-75
2021/04/24 01:18:25;;;;;;;0.47;0.47;;;;;;;11.10;59.52;99284.72;5073245;28;20032;-75
2021/04/24 01:20:55;;;;;;;1.63;0.60;;;;;;;11.04;58.86;99273.38;5073003;28;20048;-76
2021/04/24 01:23:21;;;;;;;0.40;0.40;;;;;;;11.00;58.91;99287.28;5073176;28;20040;-76
2021/04/24 01:25:46;;;;;;;0.85;0.75;;;;;;;11.37;58.07;99330.41;5073506;28;20035;-75
2021/04/24 01:28:12;;;;;;;0.35;0.35;;;;;;;11.03;56.72;99280.88;5072921;28;20024;-76
2021/04/24 01:30:41;;;;;;;4.32;1.58;;;;;;;10.93;58.25;99281.88;5072986;28;20051;-75
2021/04/24 01:33:09;;;;;;;17.00;0.95;;;;;;;11.27;58.47;99328.59;5072893;28;20123;-76
2021/04/24 01:35:36;;;;;;;1.58;1.48;;;;;;;11.05;58.09;99296.28;5072900;28;20036;-76
2021/04/24 01:38:02;;;;;;;0.40;0.40;;;;;;;11.25;58.99;99327.47;5072614;28;20044;-76
2021/04/24 01:40:28;;;;;;;0.20;0.20;;;;;;;11.25;59.45;99336.56;5072527;28;20048;-75
2021/04/24 01:42:54;;;;;;;0.50;0.50;;;;;;;10.77;60.65;99256.16;5072758;28;20029;-76
2021/04/24 01:45:21;;;;;;;1.25;1.15;;;;;;;11.19;59.28;99338.25;5072761;28;20066;-76
2021/04/24 01:47:47;;;;;;;1.30;1.20;;;;;;;10.80;57.91;99269.88;5072524;28;20075;-76
2021/04/24 01:50:35;;;;;;;0.20;0.20;;;;;;;11.16;58.70;99343.84;5072988;28;20028;-74
2021/04/24 01:53:03;;;;;;;1.63;1.20;;;;;;;11.07;57.42;99329.81;5072924;28;20060;-75
2021/04/24 01:55:31;;;;;;;0.77;0.77;;;;;;;10.58;57.69;99255.69;5072971;28;20028;-76
2021/04/24 01:57:58;;;;;;;1.45;1.35;;;;;;;10.79;58.15;99306.25;5072502;28;20032;-76
2021/04/24 02:00:29;;;;;;;0.80;0.80;;;;;;;10.91;56.84;99330.53;5071440;28;20032;-76
2021/04/24 02:02:57;;;;;;;1.52;1.42;;;;;;;11.13;57.85;99345.50;5073227;28;20033;-75
2021/04/24 02:05:23;;;;;;;0.73;0.73;;;;;;;10.81;59.51;99323.97;5072363;28;20576;-75
2021/04/24 02:08:05;;;;;;;1.20;1.10;;;;;;;10.80;58.65;99338.97;5072164;28;20485;-76
2021/04/24 02:10:31;;;;;;;0.60;0.60;;;;;;;11.05;59.63;99355.13;5072211;28;20032;-75
2021/04/24 02:12:58;;;;;;;1.10;1.05;;;;;;;10.47;59.20;99296.56;5072308;28;20031;-74
2021/04/24 02:15:24;;;;;;;2.83;2.30;;;;;;;10.84;59.63;99355.53;5072630;28;20039;-75
2021/04/24 02:17:50;;;;;;;0.98;0.98;;;;;;;10.54;59.01;99323.28;5072289;28;20650;-75
2021/04/24 02:20:16;;;;;;;2.47;1.15;;;;;;;10.81;58.83;99343.31;5071986;28;20494;-75
2021/04/24 02:22:42;;;;;;;1.10;1.10;;;;;;;10.47;58.93;99285.50;5072196;28;20028;-75
2021/04/24 02:25:11;;;;;;;0.98;0.98;;;;;;;10.76;59.64;99354.06;5071947;28;20032;-75
2021/04/24 02:27:37;;;;;;;0.43;0.43;;;;;;;10.83;58.70;99376.84;5072338;28;20067;-75
2021/04/24 02:30:05;;;;;;;0.82;0.80;;;;;;;10.82;57.58;99380.81;5072179;28;20025;-76
2021/04/24 02:32:31;;;;;;;0.55;0.55;;;;;;;10.40;59.06;99301.41;5071983;28;20028;-76
2021/04/24 02:34:58;;;;;;;0.93;0.93;;;;;;;10.51;60.48;99311.06;5071923;28;20032;-76
2021/04/24 02:37:24;;;;;;;0.50;0.50;;;;;;;10.72;62.58;99359.69;5071903;28;20029;-80
2021/04/24 02:39:52;;;;;;;0.57;0.57;;;;;;;10.76;62.63;99404.59;5071704;28;20048;-75
2021/04/24 02:42:27;;;;;;;3.73;0.57;;;;;;;10.64;62.74;99357.44;5072442;28;20025;-77
2021/04/24 02:44:55;;;;;;;3.20;2.47;;;;;;;10.46;63.08;99325.38;5072443;28;20770;-76
2021/04/24 02:47:22;;;;;;;0.95;0.82;;;;;;;10.69;63.11;99359.72;5071898;28;20119;-76
2021/04/24 02:49:48;;;;;;;0.82;0.82;;;;;;;10.35;62.72;99330.31;5071881;28;20115;-76
2021/04/24 02:52:14;;;;;;;0.52;0.52;;;;;;;10.25;62.01;99309.13;5071831;28;20479;-75
2021/04/24 02:54:39;;;;;;;1.33;1.25;;;;;;;10.26;62.44;99335.56;5071797;28;20484;-76
2021/04/24 02:57:05;;;;;;;0.43;0.43;;;;;;;10.24;63.04;99323.38;5071790;28;20043;-77
2021/04/24 02:59:31;;;;;;;3.70;2.65;;;;;;;10.63;63.37;99369.69;5071578;28;20029;-75
2021/04/24 03:01:57;;;;;;;1.05;1.00;;;;;;;10.23;61.56;99327.34;5071770;28;20093;-76
2021/04/24 03:04:23;;;;;;;1.60;1.00;;;;;;;10.43;61.91;99369.63;5071818;28;20116;-76
2021/04/24 03:06:49;;;;;;;0.55;0.55;;;;;;;10.31;60.70;99356.41;5071473;28;20036;-76
2021/04/24 03:09:15;;;;;;;0.88;0.88;;;;;;;10.13;60.46;99340.06;5072039;28;20032;-76
2021/04/24 03:11:41;;;;;;;0.30;0.30;;;;;;;10.45;61.54;99390.09;5072166;28;20044;-74
2021/04/24 03:14:07;;;;;;;0.30;0.30;;;;;;;10.45;61.41;99381.81;5075732;28;20025;-75
2021/04/24 03:16:34;;;;;;;0.52;0.52;;;;;;;9.86;60.84;99300.66;5075533;28;20403;-75
2021/04/24 03:18:59;;;;;;;0.85;0.85;;;;;;;9.93;61.85;99336.44;5075619;28;20020;-76
2021/04/24 03:21:27;;;;;;;0.45;0.45;;;;;;;9.94;61.61;99338.00;5075318;28;20032;-73
2021/04/24 03:23:53;;;;;;;0.60;0.60;;;;;;;9.98;61.32;99361.59;5075522;28;20035;-75
2021/04/24 03:26:20;;;;;;;1.90;1.73;;;;;;;9.82;61.14;99308.22;5075340;28;20029;-76
2021/04/24 03:28:46;;;;;;;0.40;0.40;;;;;;;9.87;61.91;99316.81;5075440;28;20020;-75
2021/04/24 03:31:12;;;;;;;5.38;0.85;;;;;;;10.10;61.70;99377.59;5075346;28;20499;-75
2021/04/24 03:33:38;;;;;;;0.35;0.35;;;;;;;10.12;62.20;99394.53;5075296;28;20028;-75
2021/04/24 03:36:05;;;;;;;0.50;0.50;;;;;;;9.88;63.14;99372.78;5074876;28;20036;-75
2021/04/24 03:38:31;;;;;;;2.63;2.42;;;;;;;9.92;63.09;99368.00;5074897;28;20059;-76
2021/04/24 03:40:56;;;;;;;4.38;2.10;;;;;;;9.60;64.77;99340.81;5075458;28;20033;-76
2021/04/24 03:43:22;;;;;;;0.50;0.50;;;;;;;9.51;62.51;99329.53;5075106;28;20037;-76
2021/04/24 03:45:47;;;;;;;1.20;1.08;;;;;;;9.62;63.46;99361.31;5075076;28;20480;-76
2021/04/24 03:48:13;;;;;;;0.55;0.55;;;;;;;9.77;62.98;99386.72;5075102;28;20480;-75
2021/04/24 03:50:38;;;;;;;0.45;0.45;;;;;;;9.53;62.63;99354.72;5075066;28;20020;-75
2021/04/24 03:53:04;;;;;;;0.95;0.95;;;;;;;9.21;61.98;99313.75;5075611;28;20111;-74
2021/04/24 03:55:29;;;;;;;0.38;0.38;;;;;;;9.33;63.62;99344.34;5074978;28;20567;-75
2021/04/24 03:57:55;;;;;;;0.82;0.75;;;;;;;9.23;62.42;99328.66;5075000;28;20032;-75
2021/04/24 04:00:25;;;;;;;0.57;0.57;;;;;;;9.28;62.05;99352.28;5074940;28;20031;-74
2021/04/24 04:02:57;;;;;;;2.83;1.15;;;;;;;9.37;63.27;99371.84;5075010;28;20056;-74
2021/04/24 04:05:27;;;;;;;1.38;1.27;;;;;;;9.16;63.77;99383.88;5074844;28;20066;-74
2021/04/24 04:07:53;;;;;;;0.40;0.40;;;;;;;9.35;63.08;99399.03;5075171;28;20028;-76
2021/04/24 04:10:19;;;;;;;0.40;0.40;;;;;;;9.23;62.98;99361.75;5074764;28;20029;-77
2021/04/24 04:12:46;;;;;;;4.40;1.25;;;;;;;9.30;62.01;99388.47;5074874;28;20024;-76
2021/04/24 04:15:13;;;;;;;0.88;0.63;;;;;;;9.53;63.19;99416.19;5074758;28;20028;-75
2021/04/24 04:17:38;;;;;;;0.75;0.75;;;;;;;9.43;62.45;99391.47;5074534;28;20036;-76
2021/04/24 04:20:11;;;;;;;0.30;0.30;;;;;;;9.58;61.70;99420.47;5074613;28;20024;-73
2021/04/24 04:22:37;;;;;;;0.50;0.50;;;;;;;9.06;61.93;99339.91;5074583;28;20036;-76
2021/04/24 04:25:06;;;;;;;0.40;0.40;;;;;;;9.53;62.60;99415.38;5073776;28;20048;-76
2021/04/24 04:27:32;;;;;;;0.55;0.55;;;;;;;9.23;61.53;99355.47;5074783;28;20048;-77
2021/04/24 04:29:57;;;;;;;0.50;0.50;;;;;;;9.47;61.98;99361.88;5074553;28;20404;-75
2021/04/24 04:32:23;;;;;;;0.73;0.40;;;;;;;9.60;60.61;99362.91;5074607;28;20484;-76
2021/04/24 04:34:48;;;;;;;0.20;0.20;;;;;;;10.01;61.56;99434.50;5074405;28;20500;-76
2021/04/24 04:37:14;;;;;;;0.32;0.32;;;;;;;9.83;61.00;99412.66;5074463;28;20432;-75
2021/04/24 04:39:40;;;;;;;0.20;0.20;;;;;;;9.69;60.77;99361.22;5073892;28;20048;-76
2021/04/24 04:42:07;;;;;;;1.08;1.08;;;;;;;10.09;61.67;99444.28;5074395;28;20029;-75
2021/04/24 04:44:33;;;;;;;0.25;0.25;;;;;;;10.04;59.38;99414.38;5074725;28;20561;-76
2021/04/24 04:46:59;;;;;;;0.25;0.25;;;;;;;9.84;59.51;99363.75;5074053;28;20124;-76
2021/04/24 04:49:24;;;;;;;0.32;0.32;;;;;;;10.25;61.01;99421.63;5074031;28;20060;-75
2021/04/24 04:51:50;;;;;;;0.45;0.45;;;;;;;9.87;59.93;99355.44;5074510;28;20060;-76
2021/04/24 04:54:15;;;;;;;0.50;0.50;;;;;;;9.90;60.62;99353.81;5074343;28;20056;-75
2021/04/24 04:56:41;;;;;;;0.55;0.30;;;;;;;10.11;60.17;99398.50;5073919;28;20109;-76
2021/04/24 04:59:07;;;;;;;2.08;1.23;;;;;;;10.04;58.99;99397.81;5073785;28;20029;-74
2021/04/24 05:01:32;;;;;;;0.47;0.40;;;;;;;10.14;59.88;99400.41;5073790;28;20027;-75
2021/04/24 05:03:58;;;;;;;1.75;1.65;;;;;;;10.23;60.94;99377.06;5074074;28;20036;-74
2021/04/24 05:06:23;;;;;;;0.30;0.30;;;;;;;10.52;60.65;99439.72;5073755;28;20123;-76
2021/04/24 05:08:49;;;;;;;0.50;0.50;;;;;;;10.45;60.65;99403.91;5073556;28;20052;-75
2021/04/24 05:11:14;;;;;;;0.20;0.20;;;;;;;10.44;60.11;99380.25;5073649;28;20020;-76
2021/04/24 05:13:41;;;;;;;0.40;0.40;;;;;;;10.75;59.71;99421.59;5073565;28;20036;-76
2021/04/24 05:16:07;;;;;;;0.20;0.20;;;;;;;10.41;59.38;99364.53;5073532;28;20032;-76
2021/04/24 05:18:32;;;;;;;0.80;0.57;;;;;;;10.63;58.01;99397.31;5073453;28;20029;-74
2021/04/24 05:20:59;;;;;;;0.32;0.32;;;;;;;10.79;57.92;99416.81;5073513;28;20060;-74
2021/04/24 05:23:25;;;;;;;0.30;0.30;;;;;;;10.77;57.87;99395.13;5073332;28;20028;-76
2021/04/24 05:25:50;;;;;;;0.82;0.82;;;;;;;10.79;56.46;99386.41;5073354;28;20035;-74
2021/04/24 05:28:16;;;;;;;2.40;1.38;;;;;;;11.14;58.66;99430.03;5073321;28;20496;-76
2021/04/24 05:30:41;;;;;;;0.40;0.40;;;;;;;11.08;58.11;99409.59;5073127;28;20028;-75
2021/04/24 05:33:07;;;;;;;2.53;0.75;;;;;;;11.42;56.98;99434.25;5073216;28;20408;-75
2021/04/24 05:35:32;;;;;;;1.13;1.13;;;;;;;11.51;58.24;99417.09;5073202;28;20047;-76
2021/04/24 05:37:58;;;;;;;1.02;0.90;;;;;;;11.50;56.83;99412.75;5072748;28;20036;-77
2021/04/24 05:40:26;;;;;;;0.43;0.43;;;;;;;11.40;57.13;99381.31;5072829;28;20044;-74
2021/04/24 05:42:51;;;;;;;0.30;0.30;;;;;;;11.81;55.58;99433.53;5072720;28;20031;-74
2021/04/24 05:45:17;;;;;;;1.85;1.38;;;;;;;11.72;55.55;99433.25;5072678;28;20409;-78
2021/04/24 05:47:48;;;;;;;0.80;0.75;;;;;;;11.42;57.26;99385.22;5073310;28;20115;-75
2021/04/24 05:50:17;;;;;;;1.42;1.33;;;;;;;11.66;54.97;99430.22;5073078;28;20024;-76
2021/04/24 05:52:43;;;;;;;1.75;1.08;;;;;;;11.73;54.81;99409.91;5072601;28;20032;-79
2021/04/24 05:55:10;;;;;;;0.30;0.30;;;;;;;11.56;54.92;99392.47;5072724;28;20029;-77
2021/04/24 05:57:36;;;;;;;0.55;0.55;;;;;;;11.65;53.03;99372.50;5072556;28;20056;-78
2021/04/24 06:00:04;;;;;;;0.45;0.45;;;;;;;12.09;51.73;99413.53;5073016;28;20103;-76
2021/04/24 06:02:29;;;;;;;0.60;0.60;;;;;;;12.11;52.53;99436.03;5072574;28;20523;-76
2021/04/24 06:04:56;;;;;;;1.08;1.05;;;;;;;12.00;53.43;99424.41;5072684;28;20040;-79
2021/04/24 06:07:22;;;;;;;1.15;1.13;;;;;;;12.11;52.69;99419.44;5072405;28;20040;-76
2021/04/24 06:09:47;;;;;;;0.55;0.55;;;;;;;12.34;52.40;99426.03;5072299;28;20024;-76
2021/04/24 06:12:12;;;;;;;0.68;0.68;;;;;;;12.29;53.42;99424.56;5072161;28;20028;-75
2021/04/24 06:14:38;;;;;;;0.52;0.52;;;;;;;12.36;53.12;99426.38;5072762;28;20060;-75
2021/04/24 06:17:04;;;;;;;1.45;1.40;;;;;;;11.95;51.92;99377.03;5072190;28;20094;-77
2021/04/24 06:19:29;;;;;;;0.95;0.90;;;;;;;12.22;52.42;99435.81;5072294;28;20032;-75
2021/04/24 06:21:55;;;;;;;0.90;0.90;;;;;;;12.34;53.14;99424.06;5072151;28;20024;-75
2021/04/24 06:24:21;;;;;;;4.95;1.30;;;;;;;11.91;52.32;99377.13;5071993;28;20029;-76
2021/04/24 06:26:47;;;;;;;1.65;1.55;;;;;;;12.20;53.09;99416.84;5072088;28;20024;-77
2021/04/24 06:29:13;;;;;;;1.00;1.00;;;;;;;12.11;53.45;99402.81;5071910;28;20033;-77
2021/04/24 06:31:38;;;;;;;0.52;0.52;;;;;;;11.92;54.05;99392.53;5071906;28;20032;-76
2021/04/24 06:34:04;;;;;;;0.95;0.95;;;;;;;11.67;52.30;99351.50;5071909;28;20119;-75
2021/04/24 06:36:29;;;;;;;1.25;1.00;;;;;;;12.08;52.22;99414.72;5071835;28;20485;-77
2021/04/24 06:38:58;;;;;;;2.58;2.38;;;;;;;12.17;52.44;99428.00;5071815;28;20063;-76
2021/04/24 06:41:23;;;;;;;0.73;0.73;;;;;;;12.08;52.69;99436.88;5071641;28;20051;-76
2021/04/24 06:43:49;;;;;;;1.33;1.33;;;;;;;11.71;53.23;99406.78;5071576;28;20484;-75
2021/04/24 06:46:14;;;;;;;4.50;2.42;;;;;;;11.63;53.82;99406.19;5071438;28;20028;-77
2021/04/24 06:48:40;;;;;;;1.52;1.27;;;;;;;11.89;52.84;99437.69;5071659;28;20028;-76
2021/04/24 06:51:05;;;;;;;0.50;0.50;;;;;;;11.81;53.32;99394.75;5071603;28;20028;-75
2021/04/24 06:53:31;;;;;;;6.57;1.58;;;;;;;11.93;52.82;99427.34;5071737;28;20028;-75
2021/04/24 06:55:57;;;;;;;5.45;3.60;;;;;;;12.00;53.23;99446.53;5071529;28;20125;-75
2021/04/24 06:58:25;;;;;;;6.13;2.63;;;;;;;11.63;53.57;99392.34;5071323;28;20492;-76
2021/04/24 07:00:52;;;;;;;0.85;0.85;;;;;;;11.94;53.52;99437.19;5071675;28;20032;-79
2021/04/24 07:03:17;;;;;;;0.65;0.65;;;;;;;11.72;51.54;99411.13;5071771;28;20067;-79
2021/04/24 07:05:43;;;;;;;0.70;0.70;;;;;;;11.90;52.52;99441.25;5071820;28;20029;-79
2021/04/24 07:08:08;;;;;;;0.85;0.85;;;;;;;12.00;53.24;99437.47;5071873;28;20039;-78
2021/04/24 07:10:33;;;;;;;0.30;0.30;;;;;;;11.71;53.67;99379.09;5071858;28;20094;-78
2021/04/24 07:12:59;;;;;;;2.17;2.03;;;;;;;11.94;54.12;99437.19;5071411;28;20489;-76
2021/04/24 07:15:24;;;;;;;0.30;0.30;;;;;;;11.78;54.35;99401.13;5071478;28;20052;-76
2021/04/24 07:17:50;;;;;;;1.25;0.52;;;;;;;11.67;53.25;99401.34;5071545;28;20036;-74
2021/04/24 07:20:18;;;;;;;0.95;0.95;;;;;;;11.72;52.27;99400.84;5071357;28;20493;-76
2021/04/24 07:22:44;;;;;;;0.80;0.77;;;;;;;11.97;52.56;99450.19;5072002;28;20036;-75
2021/04/24 07:25:10;;;;;;;1.65;0.80;;;;;;;12.01;52.59;99448.13;5071307;28;20116;-75
2021/04/24 07:27:36;;;;;;;0.80;0.63;;;;;;;11.89;53.29;99451.53;5071969;28;20039;-76
2021/04/24 07:30:03;;;;;;;2.65;1.67;;;;;;;12.04;52.32;99450.03;5071751;28;20028;-77
2021/04/24 07:32:29;;;;;;;0.75;0.75;;;;;;;12.09;51.70;99454.28;5071443;28;20480;-74
2021/04/24 07:34:54;;;;;;;1.25;1.25;;;;;;;12.23;53.36;99449.25;5071413;28;20025;-74
2021/04/24 07:37:20;;;;;;;0.77;0.77;;;;;;;12.18;52.13;99441.41;5071548;28;20068;-76
2021/04/24 07:39:45;;;;;;;0.68;0.68;;;;;;;12.19;49.76;99431.09;5071007;28;20555;-76
2021/04/24 07:42:11;;;;;;;0.25;0.25;;;;;;;12.03;51.03;99408.91;5071360;28;20527;-74
2021/04/24 07:44:38;;;;;;;1.92;1.83;;;;;;;12.38;51.36;99435.84;5071140;28;20032;-77
2021/04/24 07:47:04;;;;;;;2.65;1.23;;;;;;;11.95;50.73;99391.66;5071216;28;20091;-75
2021/04/24 07:49:30;;;;;;;0.30;0.30;;;;;;;12.39;51.00;99425.53;5071090;28;20036;-74
2021/04/24 07:51:56;;;;;;;0.20;0.20;;;;;;;12.58;50.46;99449.63;5071290;28;20029;-74
2021/04/24 07:54:21;;;;;;;0.43;0.43;;;;;;;12.48;49.85;99447.88;5071327;28;20721;-74
2021/04/24 07:56:48;;;;;;;0.57;0.57;;;;;;;12.60;51.40;99430.56;5070707;28;20488;-76
2021/04/24 07:59:13;;;;;;;3.28;1.88;;;;;;;12.57;49.05;99426.69;5072268;28;20095;-75
2021/04/24 08:01:39;;;;;;;0.95;0.95;;;;;;;12.88;50.18;99435.44;5074783;28;20028;-73
2021/04/24 08:04:06;;;;;;;3.67;3.38;;;;;;;12.99;49.21;99438.72;5074658;28;20020;-75
2021/04/24 08:06:33;;;;;;;9.05;2.05;;;;;;;13.16;49.01;99445.06;5074614;28;20040;-74
2021/04/24 08:08:58;;;;;;;2.15;2.05;;;;;;;12.97;49.92;99413.41;5074410;28;20066;-75
2021/04/24 08:11:24;;;;;;;5.20;1.02;;;;;;;13.44;49.53;99462.97;5074471;28;20441;-73
2021/04/24 08:13:50;;;;;;;19.30;0.98;;;;;;;13.30;49.79;99407.84;5074498;28;20032;-75
2021/04/24 08:16:15;;;;;;;0.40;0.40;;;;;;;13.55;49.01;99409.94;5074419;28;20028;-75
2021/04/24 08:18:41;;;;;;;1.48;1.38;;;;;;;13.70;48.57;99436.84;5074627;28;20093;-75
2021/04/24 08:21:06;;;;;;;6.00;0.90;;;;;;;13.59;49.67;99400.28;5074279;28;20055;-75
2021/04/24 08:23:32;;;;;;;0.90;0.90;;;;;;;13.87;49.06;99432.00;5074021;28;20020;-75
2021/04/24 08:25:57;;;;;;;1.33;1.23;;;;;;;13.70;47.74;99416.63;5074767;28;20028;-75
2021/04/24 08:28:23;;;;;;;3.83;0.93;;;;;;;13.91;48.83;99429.91;5074050;28;20029;-76
2021/04/24 08:30:48;;;;;;;0.85;0.85;;;;;;;13.96;47.64;99439.69;5074487;28;20036;-74
2021/04/24 08:33:14;;;;;;;0.68;0.68;;;;;;;13.89;48.39;99399.00;5074373;28;20021;-74
2021/04/24 08:35:40;;;;;;;1.55;0.40;;;;;;;13.95;47.68;99396.47;5074056;28;20476;-76
2021/04/24 08:38:05;;;;;;;0.73;0.73;;;;;;;14.03;46.22;99422.81;5073793;28;20460;-73
2021/04/24 08:40:31;;;;;;;0.85;0.30;;;;;;;14.00;45.80;99390.34;5073427;28;20025;-76
2021/04/24 08:42:56;;;;;;;0.65;0.65;;;;;;;14.17;46.14;99428.72;5073909;28;20030;-75
2021/04/24 08:45:24;;;;;;;0.32;0.32;;;;;;;13.94;45.99;99361.56;5073952;28;20067;-75
2021/04/24 08:47:52;;;;;;;3.25;1.75;;;;;;;14.21;47.24;99398.84;5074116;28;20071;-76
2021/04/24 08:50:24;;;;;;;2.97;2.10;;;;;;;14.18;48.39;99410.81;5073989;28;20477;-77
2021/04/24 08:52:52;;;;;;;1.65;1.55;;;;;;;14.16;48.46;99393.06;5075323;28;20028;-76
2021/04/24 08:55:20;;;;;;;0.73;0.73;;;;;;;14.25;46.19;99360.59;5073710;28;20400;-75
2021/04/24 08:57:47;;;;;;;3.30;0.98;;;;;;;14.69;45.85;99396.16;5073636;28;20033;-75
2021/04/24 09:00:14;;;;;;;1.27;1.10;;;;;;;14.86;46.06;99375.31;5073561;28;20115;-75
2021/04/24 09:02:41;;;;;;;0.50;0.50;;;;;;;14.58;44.34;99386.19;5073435;28;20032;-76
2021/04/24 09:05:08;;;;;;;0.93;0.73;;;;;;;14.71;44.31;99377.78;5073516;28;20032;-74
2021/04/24 09:07:33;;;;;;;0.20;0.20;;;;;;;15.03;45.40;99373.94;5074796;28;20056;-76
2021/04/24 09:10:00;;;;;;;0.43;0.43;;;;;;;14.87;46.66;99335.16;5073079;28;20060;-76
2021/04/24 09:12:39;;;;;;;0.75;0.75;;;;;;;15.17;44.25;99370.66;5073575;28;20033;-76
2021/04/24 09:15:16;;;;;;;4.20;0.77;;;;;;;15.28;45.43;99334.09;5073215;28;20036;-75
2021/04/24 09:17:57;;;;;;;0.60;0.60;;;;;;;15.03;43.47;99309.94;5073195;28;20024;-74
2021/04/24 09:20:26;;;;;;;0.95;0.95;;;;;;;15.52;40.52;99367.84;5073737;28;20543;-74
2021/04/24 09:23:06;;;;;;;0.85;0.85;;;;;;;15.49;43.02;99334.06;5073048;28;20028;-75
2021/04/24 09:25:57;;;;;;;0.80;0.68;;;;;;;15.35;43.11;99306.78;5072923;28;20034;-75
2021/04/24 09:28:27;;;;;;;1.05;1.05;;;;;;;15.80;41.28;99325.00;5074368;28;20480;-75
2021/04/24 09:30:54;;;;;;;0.60;0.60;;;;;;;15.82;40.56;99333.69;5072862;28;20491;-74
2021/04/24 09:33:19;;;;;;;0.98;0.85;;;;;;;16.33;40.19;99338.88;5072792;28;20029;-75
2021/04/24 09:35:47;;;;;;;0.30;0.30;;;;;;;16.08;41.40;99323.91;5072770;28;20097;-75
2021/04/24 09:38:42;;;;;;;0.88;0.85;;;;;;;16.26;41.44;99312.06;5072366;28;20470;-74
2021/04/24 09:41:23;;;;;;;1.33;0.40;;;;;;;15.51;40.66;99263.22;5072176;28;20037;-74
2021/04/24 09:44:06;;;;;;;0.20;0.20;;;;;;;15.71;41.42;99278.38;5072747;28;20100;-76
2021/04/24 09:46:46;;;;;;;0.30;0.30;;;;;;;16.32;41.18;99340.88;5072799;28;20439;-73
2021/04/24 09:49:27;;;;;;;1.35;1.25;;;;;;;16.17;40.37;99276.53;5072490;28;20028;-74
2021/04/24 09:51:59;;;;;;;1.00;0.47;;;;;;;16.31;41.03;99299.50;5072653;28;20032;-74
2021/04/24 09:54:45;;;;;;;1.48;0.98;;;;;;;16.19;40.99;99313.09;5073139;28;20476;-74
2021/04/24 09:57:20;;;;;;;0.10;0.10;;;;;;;15.76;39.50;99319.56;5072497;28;20032;-74
2021/04/24 10:00:08;;;;;;;0.45;0.40;;;;;;;15.71;40.48;99289.53;5072286;28;20081;-74
2021/04/24 10:02:35;;;;;;;2.10;0.55;;;;;;;15.86;41.20;99292.53;5072784;28;20093;-74
2021/04/24 10:05:27;;;;;;;0.22;0.22;;;;;;;16.00;40.86;99308.69;5072534;28;20033;-74
2021/04/24 10:07:55;;;;;;;1.45;0.75;;;;;;;16.14;42.71;99322.06;5071878;28;20033;-76
2021/04/24 10:10:24;;;;;;;0.40;0.40;;;;;;;15.65;41.95;99257.16;5072349;28;20060;-75
2021/04/24 10:12:57;;;;;;;0.15;0.15;;;;;;;15.74;42.00;99301.75;5072533;28;20123;-76
2021/04/24 10:15:43;;;;;;;0.63;0.60;;;;;;;15.69;44.57;99300.34;5072712;28;20024;-76
2021/04/24 10:18:13;;;;;;;1.08;0.93;;;;;;;15.51;43.90;99277.16;5072240;28;20048;-75
2021/04/24 10:20:42;;;;;;;0.30;0.30;;;;;;;15.35;39.44;99233.59;5072656;28;20468;-76
2021/04/24 10:23:09;;;;;;;0.88;0.88;;;;;;;16.17;39.04;99270.97;5071474;28;20027;-76
2021/04/24 10:25:39;;;;;;;0.47;0.47;;;;;;;16.28;38.74;99242.63;5072138;28;20519;-76
2021/04/24 10:28:04;;;;;;;0.30;0.30;;;;;;;16.71;38.41;99302.25;5072033;28;20024;-76
2021/04/24 10:30:30;;;;;;;1.40;0.55;;;;;;;17.00;38.80;99299.78;5072006;28;20032;-78
2021/04/24 10:32:56;;;;;;;1.23;0.68;;;;;;;17.14;40.60;99309.53;5072132;28;20024;-76
2021/04/24 10:35:23;;;;;;;0.43;0.43;;;;;;;17.11;38.46;99305.69;5072388;28;20031;-76
2021/04/24 10:37:51;;;;;;;1.00;0.50;;;;;;;17.23;38.82;99301.94;5072329;28;20051;-76
2021/04/24 10:40:18;;;;;;;1.27;1.17;;;;;;;17.25;36.25;99316.22;5071755;28;20056;-76
2021/04/24 10:42:49;;;;;;;0.35;0.35;;;;;;;16.73;36.71;99255.91;5072128;28;20084;-77
2021/04/24 10:45:29;;;;;;;3.10;0.57;;;;;;;17.24;35.64;99325.06;5071957;28;20035;-76
2021/04/24 10:47:55;;;;;;;0.52;0.40;;;;;;;16.99;34.67;99318.56;5072283;28;20047;-75
2021/04/24 10:50:44;;;;;;;0.30;0.30;;;;;;;16.43;35.83;99307.75;5071930;28;20405;-76
2021/04/24 10:53:17;;;;;;;0.68;0.68;;;;;;;16.46;37.90;99334.72;5072036;28;20032;-76
2021/04/24 10:55:44;;;;;;;5.53;0.47;;;;;;;16.71;38.08;99333.72;5071433;28;20035;-76
2021/04/24 10:58:15;;;;;;;1.25;0.57;;;;;;;16.83;40.91;99341.16;5071839;28;20082;-80
2021/04/24 11:00:41;;;;;;;0.38;0.38;;;;;;;16.78;40.36;99299.94;5072356;28;20052;-78
2021/04/24 11:03:06;;;;;;;0.30;0.30;;;;;;;17.14;39.12;99331.88;5071854;28;20435;-76
2021/04/24 11:05:45;;;;;;;2.80;2.38;;;;;;;17.22;38.68;99277.28;5070807;28;20115;-77
2021/04/24 11:08:20;;;;;;;2.22;1.33;;;;;;;17.48;36.63;99278.47;5072622;28;20036;-79
2021/04/24 11:10:47;;;;;;;0.32;0.32;;;;;;;17.90;35.09;99318.41;5071893;28;20123;-77
2021/04/24 11:13:16;;;;;;;0.43;0.43;;;;;;;17.76;34.45;99293.94;5071600;28;20404;-76
2021/04/24 11:15:42;;;;;;;0.75;0.75;;;;;;;17.74;33.89;99299.22;5072308;28;20059;-75
2021/04/24 11:18:10;;;;;;;0.45;0.45;;;;;;;17.92;32.82;99289.22;5071952;28;20025;-76
2021/04/24 11:20:51;;;;;;;;;;;;;;;17.79;32.67;99320.16;5072092;28;20081;-76
2021/04/24 11:23:42;;;;;;;1.75;1.25;;;;;;;17.76;32.83;99313.50;5071450;28;19923;-76
2021/04/24 11:26:11;;;;;;;3.20;2.97;;;;;;;17.91;33.11;99316.41;5071610;28;20024;-77
2021/04/24 11:28:56;;;;;;;0.68;0.68;;;;;;;17.99;32.13;99314.81;5071503;28;20060;-77
2021/04/24 11:31:50;;;;;;;0.40;0.40;;;;;;;17.64;33.35;99305.31;5068616;28;20040;-76
2021/04/24 11:34:40;;;;;;;0.88;0.88;;;;;;;17.40;32.48;99296.81;5052651;28;20124;-75
2021/04/24 11:37:18;;;;;;;13.43;0.85;;;;;;;17.54;33.95;99315.69;5052577;28;20036;-73